sensor_id;sensor_type;location;lat;lon;timestamp;P1;durP1;ratioP1;P2;durP2;ratioP2
22080;SDS011;11207;59.512;18.050;2023-04-06T00:02:11;6.57;;;5.63;;
22080;SDS011;11207;59.512;18.050;2023-04-06T00:04:36;7.67;;;4.93;;
22080;SDS011;11207;59.512;18.050;2023-04-06T00:07:02;5.57;;;5.07;;
22080;SDS011;11207;59.512;18.050;2023-04-06T00:09:28;5.27;;;4.87;;
22080;SDS011;11207;59.512;18.050;2023-04-06T00:11:53;5.80;;;5.30;;
22080;SDS011;11207;59.512;18.050;2023-04-06T00:14:19;5.23;;;4.73;;
22080;SDS011;11207;59.512;18.050;2023-04-06T00:16:45;5.57;;;4.67;;
22080;SDS011;11207;59.512;18.050;2023-04-06T00:19:11;5.07;;;4.67;;
22080;SDS011;11207;59.512;18.050;2023-04-06T00:21:36;6.37;;;4.80;;
22080;SDS011;11207;59.512;18.050;2023-04-06T00:24:02;5.57;;;5.00;;
22080;SDS011;11207;59.512;18.050;2023-04-06T00:26:32;5.23;;;4.83;;
22080;SDS011;11207;59.512;18.050;2023-04-06T00:28:58;5.30;;;4.80;;
22080;SDS011;11207;59.512;18.050;2023-04-06T00:31:24;5.10;;;4.70;;
22080;SDS011;11207;59.512;18.050;2023-04-06T00:33:49;5.47;;;5.00;;
22080;SDS011;11207;59.512;18.050;2023-04-06T00:36:15;6.13;;;4.90;;
22080;SDS011;11207;59.512;18.050;2023-04-06T00:38:40;5.73;;;5.23;;
22080;SDS011;11207;59.512;18.050;2023-04-06T00:41:08;7.07;;;5.10;;
22080;SDS011;11207;59.512;18.050;2023-04-06T00:43:33;6.97;;;5.13;;
22080;SDS011;11207;59.512;18.050;2023-04-06T00:45:59;5.17;;;4.67;;
22080;SDS011;11207;59.512;18.050;2023-04-06T00:48:26;5.23;;;4.83;;
22080;SDS011;11207;59.512;18.050;2023-04-06T00:50:52;6.63;;;4.97;;
22080;SDS011;11207;59.512;18.050;2023-04-06T00:53:20;5.07;;;4.57;;
22080;SDS011;11207;59.512;18.050;2023-04-06T00:55:46;5.20;;;4.80;;
22080;SDS011;11207;59.512;18.050;2023-04-06T00:58:12;5.67;;;5.17;;
22080;SDS011;11207;59.512;18.050;2023-04-06T01:00:37;5.73;;;5.23;;
22080;SDS011;11207;59.512;18.050;2023-04-06T01:03:03;6.00;;;5.50;;
22080;SDS011;11207;59.512;18.050;2023-04-06T01:05:32;5.80;;;5.30;;
22080;SDS011;11207;59.512;18.050;2023-04-06T01:08:05;6.53;;;5.83;;
22080;SDS011;11207;59.512;18.050;2023-04-06T01:10:32;5.70;;;5.17;;
22080;SDS011;11207;59.512;18.050;2023-04-06T01:12:57;5.40;;;4.90;;
22080;SDS011;11207;59.512;18.050;2023-04-06T01:15:23;9.73;;;6.57;;
22080;SDS011;11207;59.512;18.050;2023-04-06T01:17:49;17.37;;;10.13;;
22080;SDS011;11207;59.512;18.050;2023-04-06T01:20:15;25.47;;;12.57;;
22080;SDS011;11207;59.512;18.050;2023-04-06T01:22:41;24.63;;;11.80;;
22080;SDS011;11207;59.512;18.050;2023-04-06T01:25:06;28.93;;;13.60;;
22080;SDS011;11207;59.512;18.050;2023-04-06T01:27:33;29.27;;;14.03;;
22080;SDS011;11207;59.512;18.050;2023-04-06T01:29:58;25.03;;;13.63;;
22080;SDS011;11207;59.512;18.050;2023-04-06T01:32:24;23.67;;;11.20;;
22080;SDS011;11207;59.512;18.050;2023-04-06T01:34:50;20.07;;;11.23;;
22080;SDS011;11207;59.512;18.050;2023-04-06T01:37:16;21.60;;;10.17;;
22080;SDS011;11207;59.512;18.050;2023-04-06T01:39:42;15.93;;;9.43;;
22080;SDS011;11207;59.512;18.050;2023-04-06T01:42:08;10.83;;;7.70;;
22080;SDS011;11207;59.512;18.050;2023-04-06T01:44:34;11.47;;;7.93;;
22080;SDS011;11207;59.512;18.050;2023-04-06T01:47:02;8.20;;;6.63;;
22080;SDS011;11207;59.512;18.050;2023-04-06T01:49:27;10.97;;;7.07;;
22080;SDS011;11207;59.512;18.050;2023-04-06T01:51:53;6.83;;;5.50;;
22080;SDS011;11207;59.512;18.050;2023-04-06T01:54:19;7.53;;;5.60;;
22080;SDS011;11207;59.512;18.050;2023-04-06T01:56:45;6.60;;;5.90;;
22080;SDS011;11207;59.512;18.050;2023-04-06T01:59:11;6.00;;;5.40;;
22080;SDS011;11207;59.512;18.050;2023-04-06T02:01:36;6.33;;;5.73;;
22080;SDS011;11207;59.512;18.050;2023-04-06T02:04:02;8.73;;;5.73;;
22080;SDS011;11207;59.512;18.050;2023-04-06T02:06:28;5.17;;;4.77;;
22080;SDS011;11207;59.512;18.050;2023-04-06T02:08:53;5.67;;;5.17;;
22080;SDS011;11207;59.512;18.050;2023-04-06T02:11:19;5.47;;;4.97;;
22080;SDS011;11207;59.512;18.050;2023-04-06T02:13:45;5.60;;;5.10;;
22080;SDS011;11207;59.512;18.050;2023-04-06T02:16:10;6.23;;;5.17;;
22080;SDS011;11207;59.512;18.050;2023-04-06T02:18:36;6.17;;;4.93;;
22080;SDS011;11207;59.512;18.050;2023-04-06T02:21:01;5.77;;;5.37;;
22080;SDS011;11207;59.512;18.050;2023-04-06T02:23:27;7.90;;;5.40;;
22080;SDS011;11207;59.512;18.050;2023-04-06T02:25:53;5.80;;;5.30;;
22080;SDS011;11207;59.512;18.050;2023-04-06T02:28:18;5.93;;;5.43;;
22080;SDS011;11207;59.512;18.050;2023-04-06T02:30:44;5.77;;;5.13;;
22080;SDS011;11207;59.512;18.050;2023-04-06T02:33:09;6.03;;;5.43;;
22080;SDS011;11207;59.512;18.050;2023-04-06T02:35:35;5.97;;;5.37;;
22080;SDS011;11207;59.512;18.050;2023-04-06T02:38:01;6.30;;;5.80;;
22080;SDS011;11207;59.512;18.050;2023-04-06T02:40:26;6.67;;;5.87;;
22080;SDS011;11207;59.512;18.050;2023-04-06T02:42:53;6.90;;;5.60;;
22080;SDS011;11207;59.512;18.050;2023-04-06T02:45:19;6.50;;;5.90;;
22080;SDS011;11207;59.512;18.050;2023-04-06T02:47:45;6.00;;;5.40;;
22080;SDS011;11207;59.512;18.050;2023-04-06T02:50:11;6.10;;;5.50;;
22080;SDS011;11207;59.512;18.050;2023-04-06T02:52:36;5.47;;;4.93;;
22080;SDS011;11207;59.512;18.050;2023-04-06T02:55:02;6.30;;;5.60;;
22080;SDS011;11207;59.512;18.050;2023-04-06T02:57:28;5.93;;;5.43;;
22080;SDS011;11207;59.512;18.050;2023-04-06T02:59:53;5.80;;;5.30;;
22080;SDS011;11207;59.512;18.050;2023-04-06T03:02:19;5.90;;;5.30;;
22080;SDS011;11207;59.512;18.050;2023-04-06T03:04:45;5.73;;;5.23;;
22080;SDS011;11207;59.512;18.050;2023-04-06T03:07:10;5.90;;;5.27;;
22080;SDS011;11207;59.512;18.050;2023-04-06T03:09:37;6.73;;;5.60;;
22080;SDS011;11207;59.512;18.050;2023-04-06T03:12:03;5.63;;;5.00;;
22080;SDS011;11207;59.512;18.050;2023-04-06T03:14:29;5.93;;;5.30;;
22080;SDS011;11207;59.512;18.050;2023-04-06T03:16:55;6.00;;;5.43;;
22080;SDS011;11207;59.512;18.050;2023-04-06T03:19:20;6.03;;;5.20;;
22080;SDS011;11207;59.512;18.050;2023-04-06T03:21:46;6.13;;;5.30;;
22080;SDS011;11207;59.512;18.050;2023-04-06T03:24:12;6.00;;;5.50;;
22080;SDS011;11207;59.512;18.050;2023-04-06T03:26:38;5.33;;;4.90;;
22080;SDS011;11207;59.512;18.050;2023-04-06T03:29:04;7.23;;;5.47;;
22080;SDS011;11207;59.512;18.050;2023-04-06T03:31:30;5.90;;;5.40;;
22080;SDS011;11207;59.512;18.050;2023-04-06T03:33:55;5.93;;;5.43;;
22080;SDS011;11207;59.512;18.050;2023-04-06T03:36:21;5.90;;;5.37;;
22080;SDS011;11207;59.512;18.050;2023-04-06T03:38:47;5.50;;;5.10;;
22080;SDS011;11207;59.512;18.050;2023-04-06T03:41:12;5.47;;;5.00;;
22080;SDS011;11207;59.512;18.050;2023-04-06T03:43:38;6.53;;;5.50;;
22080;SDS011;11207;59.512;18.050;2023-04-06T03:46:03;5.90;;;5.30;;
22080;SDS011;11207;59.512;18.050;2023-04-06T03:48:29;5.30;;;4.80;;
22080;SDS011;11207;59.512;18.050;2023-04-06T03:50:57;6.93;;;6.10;;
22080;SDS011;11207;59.512;18.050;2023-04-06T03:53:23;6.23;;;5.17;;
22080;SDS011;11207;59.512;18.050;2023-04-06T03:55:49;6.90;;;4.90;;
22080;SDS011;11207;59.512;18.050;2023-04-06T03:58:14;5.47;;;5.03;;
22080;SDS011;11207;59.512;18.050;2023-04-06T04:00:40;6.80;;;5.20;;
22080;SDS011;11207;59.512;18.050;2023-04-06T04:03:05;8.23;;;5.67;;
22080;SDS011;11207;59.512;18.050;2023-04-06T04:05:31;8.63;;;5.77;;
22080;SDS011;11207;59.512;18.050;2023-04-06T04:07:56;5.50;;;5.03;;
22080;SDS011;11207;59.512;18.050;2023-04-06T04:10:22;6.10;;;5.60;;
22080;SDS011;11207;59.512;18.050;2023-04-06T04:12:48;6.27;;;5.30;;
22080;SDS011;11207;59.512;18.050;2023-04-06T04:15:13;5.90;;;5.40;;
22080;SDS011;11207;59.512;18.050;2023-04-06T04:17:39;5.93;;;5.33;;
22080;SDS011;11207;59.512;18.050;2023-04-06T04:20:05;6.53;;;5.63;;
22080;SDS011;11207;59.512;18.050;2023-04-06T04:22:31;6.23;;;5.67;;
22080;SDS011;11207;59.512;18.050;2023-04-06T04:24:56;6.20;;;5.60;;
22080;SDS011;11207;59.512;18.050;2023-04-06T04:27:22;6.47;;;5.77;;
22080;SDS011;11207;59.512;18.050;2023-04-06T04:29:48;6.37;;;5.83;;
22080;SDS011;11207;59.512;18.050;2023-04-06T04:32:13;6.33;;;5.73;;
22080;SDS011;11207;59.512;18.050;2023-04-06T04:34:39;6.53;;;5.83;;
22080;SDS011;11207;59.512;18.050;2023-04-06T04:37:05;7.03;;;5.93;;
22080;SDS011;11207;59.512;18.050;2023-04-06T04:39:31;6.67;;;6.07;;
22080;SDS011;11207;59.512;18.050;2023-04-06T04:41:57;6.53;;;5.93;;
22080;SDS011;11207;59.512;18.050;2023-04-06T04:44:23;6.17;;;5.60;;
22080;SDS011;11207;59.512;18.050;2023-04-06T04:46:48;5.90;;;5.40;;
22080;SDS011;11207;59.512;18.050;2023-04-06T04:49:14;6.73;;;6.13;;
22080;SDS011;11207;59.512;18.050;2023-04-06T04:51:41;7.10;;;6.20;;
22080;SDS011;11207;59.512;18.050;2023-04-06T04:54:06;7.13;;;5.53;;
22080;SDS011;11207;59.512;18.050;2023-04-06T04:56:32;6.70;;;5.60;;
22080;SDS011;11207;59.512;18.050;2023-04-06T04:58:58;7.60;;;6.00;;
22080;SDS011;11207;59.512;18.050;2023-04-06T05:01:23;6.77;;;5.83;;
22080;SDS011;11207;59.512;18.050;2023-04-06T05:03:49;9.00;;;7.10;;
22080;SDS011;11207;59.512;18.050;2023-04-06T05:06:15;6.30;;;5.73;;
22080;SDS011;11207;59.512;18.050;2023-04-06T05:08:41;7.07;;;5.83;;
22080;SDS011;11207;59.512;18.050;2023-04-06T05:11:07;7.50;;;6.07;;
22080;SDS011;11207;59.512;18.050;2023-04-06T05:13:33;6.23;;;5.60;;
22080;SDS011;11207;59.512;18.050;2023-04-06T05:15:59;6.77;;;6.07;;
22080;SDS011;11207;59.512;18.050;2023-04-06T05:18:25;6.47;;;5.67;;
22080;SDS011;11207;59.512;18.050;2023-04-06T05:20:51;6.70;;;5.87;;
22080;SDS011;11207;59.512;18.050;2023-04-06T05:23:16;7.30;;;5.80;;
22080;SDS011;11207;59.512;18.050;2023-04-06T05:25:42;8.47;;;5.73;;
22080;SDS011;11207;59.512;18.050;2023-04-06T05:28:08;6.03;;;5.53;;
22080;SDS011;11207;59.512;18.050;2023-04-06T05:30:33;9.20;;;5.83;;
22080;SDS011;11207;59.512;18.050;2023-04-06T05:33:01;9.03;;;6.17;;
22080;SDS011;11207;59.512;18.050;2023-04-06T05:35:27;6.10;;;5.60;;
22080;SDS011;11207;59.512;18.050;2023-04-06T05:37:52;6.40;;;5.80;;
22080;SDS011;11207;59.512;18.050;2023-04-06T05:40:18;6.73;;;6.00;;
22080;SDS011;11207;59.512;18.050;2023-04-06T05:42:44;6.63;;;5.50;;
22080;SDS011;11207;59.512;18.050;2023-04-06T05:45:10;5.77;;;5.13;;
22080;SDS011;11207;59.512;18.050;2023-04-06T05:47:41;5.80;;;5.30;;
22080;SDS011;11207;59.512;18.050;2023-04-06T05:50:07;6.83;;;6.03;;
22080;SDS011;11207;59.512;18.050;2023-04-06T05:52:33;6.70;;;6.07;;
22080;SDS011;11207;59.512;18.050;2023-04-06T05:54:58;7.73;;;6.40;;
22080;SDS011;11207;59.512;18.050;2023-04-06T05:57:24;7.13;;;5.97;;
22080;SDS011;11207;59.512;18.050;2023-04-06T05:59:50;6.23;;;5.60;;
22080;SDS011;11207;59.512;18.050;2023-04-06T06:02:15;7.30;;;6.03;;
22080;SDS011;11207;59.512;18.050;2023-04-06T06:04:41;7.10;;;6.13;;
22080;SDS011;11207;59.512;18.050;2023-04-06T06:07:06;8.23;;;6.00;;
22080;SDS011;11207;59.512;18.050;2023-04-06T06:09:32;9.73;;;6.10;;
22080;SDS011;11207;59.512;18.050;2023-04-06T06:12:00;6.27;;;5.67;;
22080;SDS011;11207;59.512;18.050;2023-04-06T06:14:28;6.57;;;5.90;;
22080;SDS011;11207;59.512;18.050;2023-04-06T06:16:54;7.57;;;6.20;;
22080;SDS011;11207;59.512;18.050;2023-04-06T06:19:20;6.73;;;6.03;;
22080;SDS011;11207;59.512;18.050;2023-04-06T06:21:45;6.40;;;5.77;;
22080;SDS011;11207;59.512;18.050;2023-04-06T06:24:11;8.23;;;6.53;;
22080;SDS011;11207;59.512;18.050;2023-04-06T06:26:37;7.83;;;5.57;;
22080;SDS011;11207;59.512;18.050;2023-04-06T06:29:04;6.00;;;5.40;;
22080;SDS011;11207;59.512;18.050;2023-04-06T06:31:30;5.90;;;5.30;;
22080;SDS011;11207;59.512;18.050;2023-04-06T06:33:56;7.87;;;5.90;;
22080;SDS011;11207;59.512;18.050;2023-04-06T06:36:22;5.77;;;5.23;;
22080;SDS011;11207;59.512;18.050;2023-04-06T06:38:47;6.50;;;5.30;;
22080;SDS011;11207;59.512;18.050;2023-04-06T06:41:13;5.57;;;5.03;;
22080;SDS011;11207;59.512;18.050;2023-04-06T06:43:38;5.70;;;5.20;;
22080;SDS011;11207;59.512;18.050;2023-04-06T06:46:04;8.33;;;5.50;;
22080;SDS011;11207;59.512;18.050;2023-04-06T06:48:30;5.63;;;5.13;;
22080;SDS011;11207;59.512;18.050;2023-04-06T06:50:56;6.03;;;4.80;;
22080;SDS011;11207;59.512;18.050;2023-04-06T06:53:22;5.63;;;5.13;;
22080;SDS011;11207;59.512;18.050;2023-04-06T06:55:49;6.17;;;4.83;;
22080;SDS011;11207;59.512;18.050;2023-04-06T06:58:14;6.17;;;4.80;;
22080;SDS011;11207;59.512;18.050;2023-04-06T07:00:42;5.60;;;5.10;;
22080;SDS011;11207;59.512;18.050;2023-04-06T07:05:57;6.20;;;5.00;;
22080;SDS011;11207;59.512;18.050;2023-04-06T07:08:23;5.73;;;5.13;;
22080;SDS011;11207;59.512;18.050;2023-04-06T07:10:50;6.10;;;4.77;;
22080;SDS011;11207;59.512;18.050;2023-04-06T07:13:23;5.37;;;4.87;;
22080;SDS011;11207;59.512;18.050;2023-04-06T07:15:49;5.30;;;4.73;;
22080;SDS011;11207;59.512;18.050;2023-04-06T07:18:16;5.90;;;4.10;;
22080;SDS011;11207;59.512;18.050;2023-04-06T07:20:42;5.27;;;4.50;;
22080;SDS011;11207;59.512;18.050;2023-04-06T07:23:08;6.60;;;4.63;;
22080;SDS011;11207;59.512;18.050;2023-04-06T07:25:33;7.47;;;5.17;;
22080;SDS011;11207;59.512;18.050;2023-04-06T07:27:59;8.27;;;4.40;;
22080;SDS011;11207;59.512;18.050;2023-04-06T07:30:24;5.10;;;4.70;;
22080;SDS011;11207;59.512;18.050;2023-04-06T07:32:52;5.70;;;4.97;;
22080;SDS011;11207;59.512;18.050;2023-04-06T07:35:20;8.27;;;4.80;;
22080;SDS011;11207;59.512;18.050;2023-04-06T07:37:46;4.90;;;4.43;;
22080;SDS011;11207;59.512;18.050;2023-04-06T07:40:11;5.00;;;4.60;;
22080;SDS011;11207;59.512;18.050;2023-04-06T07:42:37;5.83;;;5.30;;
22080;SDS011;11207;59.512;18.050;2023-04-06T07:45:03;5.67;;;5.10;;
22080;SDS011;11207;59.512;18.050;2023-04-06T07:47:29;5.33;;;4.73;;
22080;SDS011;11207;59.512;18.050;2023-04-06T07:49:57;7.63;;;4.87;;
22080;SDS011;11207;59.512;18.050;2023-04-06T07:52:23;5.40;;;4.90;;
22080;SDS011;11207;59.512;18.050;2023-04-06T07:54:48;5.10;;;4.60;;
22080;SDS011;11207;59.512;18.050;2023-04-06T07:57:14;5.67;;;4.90;;
22080;SDS011;11207;59.512;18.050;2023-04-06T07:59:40;4.97;;;4.57;;
22080;SDS011;11207;59.512;18.050;2023-04-06T08:02:05;6.00;;;4.80;;
22080;SDS011;11207;59.512;18.050;2023-04-06T08:04:31;5.57;;;4.77;;
22080;SDS011;11207;59.512;18.050;2023-04-06T08:06:57;6.40;;;5.17;;
22080;SDS011;11207;59.512;18.050;2023-04-06T08:09:22;4.93;;;4.40;;
22080;SDS011;11207;59.512;18.050;2023-04-06T08:11:48;4.70;;;4.30;;
22080;SDS011;11207;59.512;18.050;2023-04-06T08:14:14;4.47;;;4.07;;
22080;SDS011;11207;59.512;18.050;2023-04-06T08:16:43;4.73;;;4.27;;
22080;SDS011;11207;59.512;18.050;2023-04-06T08:19:08;5.27;;;4.53;;
22080;SDS011;11207;59.512;18.050;2023-04-06T08:21:37;5.40;;;4.90;;
22080;SDS011;11207;59.512;18.050;2023-04-06T08:24:05;4.10;;;3.80;;
22080;SDS011;11207;59.512;18.050;2023-04-06T08:26:31;4.70;;;4.30;;
22080;SDS011;11207;59.512;18.050;2023-04-06T08:28:57;4.43;;;4.03;;
22080;SDS011;11207;59.512;18.050;2023-04-06T08:31:23;4.30;;;3.90;;
22080;SDS011;11207;59.512;18.050;2023-04-06T08:33:49;3.83;;;3.53;;
22080;SDS011;11207;59.512;18.050;2023-04-06T08:36:15;4.30;;;4.00;;
22080;SDS011;11207;59.512;18.050;2023-04-06T08:38:41;4.47;;;4.07;;
22080;SDS011;11207;59.512;18.050;2023-04-06T08:41:11;6.57;;;4.07;;
22080;SDS011;11207;59.512;18.050;2023-04-06T08:43:47;4.87;;;4.33;;
22080;SDS011;11207;59.512;18.050;2023-04-06T08:46:15;4.73;;;4.33;;
22080;SDS011;11207;59.512;18.050;2023-04-06T08:48:41;4.97;;;4.20;;
22080;SDS011;11207;59.512;18.050;2023-04-06T08:51:08;4.40;;;4.00;;
22080;SDS011;11207;59.512;18.050;2023-04-06T08:53:38;4.57;;;4.10;;
22080;SDS011;11207;59.512;18.050;2023-04-06T08:56:11;4.83;;;4.10;;
22080;SDS011;11207;59.512;18.050;2023-04-06T08:58:38;5.53;;;4.10;;
22080;SDS011;11207;59.512;18.050;2023-04-06T09:01:09;4.47;;;4.07;;
22080;SDS011;11207;59.512;18.050;2023-04-06T09:03:38;4.00;;;3.70;;
22080;SDS011;11207;59.512;18.050;2023-04-06T09:06:05;4.20;;;3.80;;
22080;SDS011;11207;59.512;18.050;2023-04-06T09:08:38;3.83;;;3.53;;
22080;SDS011;11207;59.512;18.050;2023-04-06T09:11:05;4.80;;;4.30;;
22080;SDS011;11207;59.512;18.050;2023-04-06T09:13:31;3.97;;;3.63;;
22080;SDS011;11207;59.512;18.050;2023-04-06T09:16:08;3.83;;;3.53;;
22080;SDS011;11207;59.512;18.050;2023-04-06T09:18:34;3.53;;;3.23;;
22080;SDS011;11207;59.512;18.050;2023-04-06T09:21:03;3.97;;;3.67;;
22080;SDS011;11207;59.512;18.050;2023-04-06T09:23:30;3.53;;;3.30;;
22080;SDS011;11207;59.512;18.050;2023-04-06T09:26:29;4.07;;;3.50;;
22080;SDS011;11207;59.512;18.050;2023-04-06T09:28:58;4.20;;;3.80;;
22080;SDS011;11207;59.512;18.050;2023-04-06T09:31:32;4.73;;;3.77;;
22080;SDS011;11207;59.512;18.050;2023-04-06T09:33:58;3.87;;;3.57;;
22080;SDS011;11207;59.512;18.050;2023-04-06T09:36:32;4.30;;;3.30;;
22080;SDS011;11207;59.512;18.050;2023-04-06T09:39:03;3.83;;;3.50;;
22080;SDS011;11207;59.512;18.050;2023-04-06T09:41:31;4.33;;;3.93;;
22080;SDS011;11207;59.512;18.050;2023-04-06T09:46:35;4.00;;;3.70;;
22080;SDS011;11207;59.512;18.050;2023-04-06T09:49:04;4.47;;;4.17;;
22080;SDS011;11207;59.512;18.050;2023-04-06T09:51:31;4.30;;;3.90;;
22080;SDS011;11207;59.512;18.050;2023-04-06T09:54:03;4.80;;;4.23;;
22080;SDS011;11207;59.512;18.050;2023-04-06T09:56:46;4.67;;;3.93;;
22080;SDS011;11207;59.512;18.050;2023-04-06T09:59:13;4.57;;;4.17;;
22080;SDS011;11207;59.512;18.050;2023-04-06T10:01:41;6.90;;;4.70;;
22080;SDS011;11207;59.512;18.050;2023-04-06T10:06:38;4.20;;;3.80;;
22080;SDS011;11207;59.512;18.050;2023-04-06T10:09:11;4.40;;;4.03;;
22080;SDS011;11207;59.512;18.050;2023-04-06T10:11:38;4.40;;;4.00;;
22080;SDS011;11207;59.512;18.050;2023-04-06T10:14:05;4.00;;;3.60;;
22080;SDS011;11207;59.512;18.050;2023-04-06T10:16:31;4.30;;;3.60;;
22080;SDS011;11207;59.512;18.050;2023-04-06T10:18:59;3.83;;;3.53;;
22080;SDS011;11207;59.512;18.050;2023-04-06T10:21:30;3.93;;;3.60;;
22080;SDS011;11207;59.512;18.050;2023-04-06T10:23:58;4.03;;;3.73;;
22080;SDS011;11207;59.512;18.050;2023-04-06T10:26:25;4.00;;;3.60;;
22080;SDS011;11207;59.512;18.050;2023-04-06T10:28:51;4.57;;;4.17;;
22080;SDS011;11207;59.512;18.050;2023-04-06T10:34:33;6.00;;;3.87;;
22080;SDS011;11207;59.512;18.050;2023-04-06T10:37:10;4.03;;;3.60;;
22080;SDS011;11207;59.512;18.050;2023-04-06T10:39:46;5.37;;;3.70;;
22080;SDS011;11207;59.512;18.050;2023-04-06T10:42:36;4.37;;;4.00;;
22080;SDS011;11207;59.512;18.050;2023-04-06T10:45:06;3.87;;;3.57;;
22080;SDS011;11207;59.512;18.050;2023-04-06T10:47:39;5.10;;;3.77;;
22080;SDS011;11207;59.512;18.050;2023-04-06T10:50:05;3.90;;;3.60;;
22080;SDS011;11207;59.512;18.050;2023-04-06T10:52:36;3.80;;;3.50;;
22080;SDS011;11207;59.512;18.050;2023-04-06T10:55:01;3.90;;;3.60;;
22080;SDS011;11207;59.512;18.050;2023-04-06T10:57:28;3.47;;;3.27;;
22080;SDS011;11207;59.512;18.050;2023-04-06T10:59:55;4.73;;;3.70;;
22080;SDS011;11207;59.512;18.050;2023-04-06T11:02:21;3.70;;;3.40;;
22080;SDS011;11207;59.512;18.050;2023-04-06T11:04:54;4.20;;;3.90;;
22080;SDS011;11207;59.512;18.050;2023-04-06T11:07:27;4.17;;;3.53;;
22080;SDS011;11207;59.512;18.050;2023-04-06T11:09:55;4.13;;;3.30;;
22080;SDS011;11207;59.512;18.050;2023-04-06T11:12:24;4.00;;;3.70;;
22080;SDS011;11207;59.512;18.050;2023-04-06T11:15:01;4.33;;;3.77;;
22080;SDS011;11207;59.512;18.050;2023-04-06T11:17:34;5.23;;;3.83;;
22080;SDS011;11207;59.512;18.050;2023-04-06T11:20:04;5.83;;;4.20;;
22080;SDS011;11207;59.512;18.050;2023-04-06T11:22:35;3.73;;;3.43;;
22080;SDS011;11207;59.512;18.050;2023-04-06T11:25:05;4.40;;;4.00;;
22080;SDS011;11207;59.512;18.050;2023-04-06T11:27:32;4.03;;;3.60;;
22080;SDS011;11207;59.512;18.050;2023-04-06T11:30:01;3.90;;;3.60;;
22080;SDS011;11207;59.512;18.050;2023-04-06T11:32:27;3.53;;;3.23;;
22080;SDS011;11207;59.512;18.050;2023-04-06T11:34:54;6.23;;;3.77;;
22080;SDS011;11207;59.512;18.050;2023-04-06T11:37:25;3.97;;;3.63;;
22080;SDS011;11207;59.512;18.050;2023-04-06T11:39:52;4.00;;;3.70;;
22080;SDS011;11207;59.512;18.050;2023-04-06T11:42:27;3.93;;;3.53;;
22080;SDS011;11207;59.512;18.050;2023-04-06T11:44:54;3.80;;;3.50;;
22080;SDS011;11207;59.512;18.050;2023-04-06T11:47:34;3.90;;;3.60;;
22080;SDS011;11207;59.512;18.050;2023-04-06T11:50:09;3.97;;;3.57;;
22080;SDS011;11207;59.512;18.050;2023-04-06T11:52:37;3.67;;;3.37;;
22080;SDS011;11207;59.512;18.050;2023-04-06T11:55:37;3.90;;;3.60;;
22080;SDS011;11207;59.512;18.050;2023-04-06T11:58:01;4.33;;;3.50;;
22080;SDS011;11207;59.512;18.050;2023-04-06T12:00:27;6.37;;;3.90;;
22080;SDS011;11207;59.512;18.050;2023-04-06T12:02:59;3.73;;;3.43;;
22080;SDS011;11207;59.512;18.050;2023-04-06T12:05:25;5.73;;;3.80;;
22080;SDS011;11207;59.512;18.050;2023-04-06T12:07:50;3.77;;;3.47;;
22080;SDS011;11207;59.512;18.050;2023-04-06T12:10:16;5.20;;;3.90;;
22080;SDS011;11207;59.512;18.050;2023-04-06T12:12:41;6.43;;;3.43;;
22080;SDS011;11207;59.512;18.050;2023-04-06T12:15:07;5.53;;;3.60;;
22080;SDS011;11207;59.512;18.050;2023-04-06T12:17:33;3.70;;;3.40;;
22080;SDS011;11207;59.512;18.050;2023-04-06T12:19:59;4.33;;;3.53;;
22080;SDS011;11207;59.512;18.050;2023-04-06T12:22:24;3.87;;;3.57;;
22080;SDS011;11207;59.512;18.050;2023-04-06T12:24:52;5.47;;;3.60;;
22080;SDS011;11207;59.512;18.050;2023-04-06T12:27:18;3.40;;;3.10;;
22080;SDS011;11207;59.512;18.050;2023-04-06T12:29:44;4.53;;;3.90;;
22080;SDS011;11207;59.512;18.050;2023-04-06T12:32:10;5.97;;;3.20;;
22080;SDS011;11207;59.512;18.050;2023-04-06T12:34:35;3.93;;;3.37;;
22080;SDS011;11207;59.512;18.050;2023-04-06T12:37:01;4.67;;;4.03;;
22080;SDS011;11207;59.512;18.050;2023-04-06T12:39:27;4.80;;;3.63;;
22080;SDS011;11207;59.512;18.050;2023-04-06T12:41:53;3.53;;;3.30;;
22080;SDS011;11207;59.512;18.050;2023-04-06T12:44:18;4.70;;;4.20;;
22080;SDS011;11207;59.512;18.050;2023-04-06T12:46:44;3.50;;;3.20;;
22080;SDS011;11207;59.512;18.050;2023-04-06T12:49:10;4.20;;;3.90;;
22080;SDS011;11207;59.512;18.050;2023-04-06T12:51:36;4.90;;;3.90;;
22080;SDS011;11207;59.512;18.050;2023-04-06T12:54:01;3.93;;;3.53;;
22080;SDS011;11207;59.512;18.050;2023-04-06T12:56:27;3.70;;;3.40;;
22080;SDS011;11207;59.512;18.050;2023-04-06T12:58:52;3.90;;;3.60;;
22080;SDS011;11207;59.512;18.050;2023-04-06T13:01:18;4.43;;;3.63;;
22080;SDS011;11207;59.512;18.050;2023-04-06T13:03:44;4.03;;;3.63;;
22080;SDS011;11207;59.512;18.050;2023-04-06T13:06:10;3.90;;;3.60;;
22080;SDS011;11207;59.512;18.050;2023-04-06T13:08:37;5.53;;;3.80;;
22080;SDS011;11207;59.512;18.050;2023-04-06T13:11:03;4.23;;;3.90;;
22080;SDS011;11207;59.512;18.050;2023-04-06T13:13:30;4.60;;;4.20;;
22080;SDS011;11207;59.512;18.050;2023-04-06T13:16:00;4.00;;;3.60;;
22080;SDS011;11207;59.512;18.050;2023-04-06T13:18:28;3.80;;;3.50;;
22080;SDS011;11207;59.512;18.050;2023-04-06T13:20:55;4.50;;;4.00;;
22080;SDS011;11207;59.512;18.050;2023-04-06T13:23:21;3.97;;;3.50;;
22080;SDS011;11207;59.512;18.050;2023-04-06T13:25:47;4.20;;;3.80;;
22080;SDS011;11207;59.512;18.050;2023-04-06T13:28:21;4.00;;;3.70;;
22080;SDS011;11207;59.512;18.050;2023-04-06T13:30:47;3.90;;;3.60;;
22080;SDS011;11207;59.512;18.050;2023-04-06T13:33:13;3.83;;;3.37;;
22080;SDS011;11207;59.512;18.050;2023-04-06T13:35:40;3.73;;;3.43;;
22080;SDS011;11207;59.512;18.050;2023-04-06T13:38:10;4.27;;;3.83;;
22080;SDS011;11207;59.512;18.050;2023-04-06T13:40:38;4.67;;;4.27;;
22080;SDS011;11207;59.512;18.050;2023-04-06T13:43:05;4.17;;;3.87;;
22080;SDS011;11207;59.512;18.050;2023-04-06T13:45:30;4.10;;;3.80;;
22080;SDS011;11207;59.512;18.050;2023-04-06T13:47:56;3.73;;;3.53;;
22080;SDS011;11207;59.512;18.050;2023-04-06T13:50:22;4.33;;;3.93;;
22080;SDS011;11207;59.512;18.050;2023-04-06T13:52:47;4.87;;;3.80;;
22080;SDS011;11207;59.512;18.050;2023-04-06T13:55:14;4.40;;;4.10;;
22080;SDS011;11207;59.512;18.050;2023-04-06T13:57:40;4.20;;;3.80;;
22080;SDS011;11207;59.512;18.050;2023-04-06T14:00:06;4.03;;;3.67;;
22080;SDS011;11207;59.512;18.050;2023-04-06T14:02:33;4.73;;;3.93;;
22080;SDS011;11207;59.512;18.050;2023-04-06T14:04:59;5.17;;;4.17;;
22080;SDS011;11207;59.512;18.050;2023-04-06T14:07:24;4.13;;;3.77;;
22080;SDS011;11207;59.512;18.050;2023-04-06T14:09:52;4.20;;;3.90;;
22080;SDS011;11207;59.512;18.050;2023-04-06T14:12:17;4.37;;;4.07;;
22080;SDS011;11207;59.512;18.050;2023-04-06T14:14:43;4.50;;;4.10;;
22080;SDS011;11207;59.512;18.050;2023-04-06T14:17:09;4.40;;;4.00;;
22080;SDS011;11207;59.512;18.050;2023-04-06T14:19:38;4.40;;;4.00;;
22080;SDS011;11207;59.512;18.050;2023-04-06T14:22:04;4.13;;;3.73;;
22080;SDS011;11207;59.512;18.050;2023-04-06T14:24:30;4.40;;;4.00;;
22080;SDS011;11207;59.512;18.050;2023-04-06T14:26:59;4.77;;;3.80;;
22080;SDS011;11207;59.512;18.050;2023-04-06T14:29:27;4.10;;;3.80;;
22080;SDS011;11207;59.512;18.050;2023-04-06T14:31:53;4.10;;;3.80;;
22080;SDS011;11207;59.512;18.050;2023-04-06T14:34:24;3.83;;;3.53;;
22080;SDS011;11207;59.512;18.050;2023-04-06T14:36:53;3.93;;;3.63;;
22080;SDS011;11207;59.512;18.050;2023-04-06T14:39:18;4.57;;;4.07;;
22080;SDS011;11207;59.512;18.050;2023-04-06T14:41:44;4.10;;;3.80;;
22080;SDS011;11207;59.512;18.050;2023-04-06T14:44:10;4.17;;;3.87;;